Pacific Infinity — 3EUI5 — position and weather

sailwx.info

Track history (hours):
 
Tides and Currents Weather Stations Pressure Air Temp Water Temp Dewpoint Dewpoint Depression Visibility Wind Speed Wind Dir Waves Ship Positions

Pacific Infinity

Last reported at 2017-Oct-17 06:31 UTC. Time now 2017-Nov-23 01:53 UTC.
Position S 28°01' E 154°09'.
Warning: this ship's position is 36 days out of date.

Length 190 m; draft 11.8 m.

Type: Cargo ship. MMSI: 373201000.

Date/timePositionNaut miles runAvg speedWind from/ knotsBaromVisibWave heightAir tempDewpointWater temp
2017-Oct-17 06:31S 28°01' E 154°09'1 9.1
2017-Oct-17 06:23S 28°02' E 154°07'3 8.8
2017-Oct-17 06:00S 28°03' E 154°04'6 8.9
2017-Oct-17 05:19S 28°05' E 153°57'2 7.9
2017-Oct-17 05:00S 28°06' E 153°55'5 9.1
2017-Oct-17 04:30S 28°11' E 153°56'5 9.3
2017-Oct-17 04:00S 28°15' E 153°57'7 9.4
2017-Oct-17 03:16S 28°22' E 153°59'3 9.7
2017-Oct-17 02:59S 28°25' E 154°00'5 9.7
2017-Oct-17 02:30S 28°29' E 154°01'24610.1
2017-Oct-16 02:03S 32°25' E 152°41'110.7
2017-Oct-16 02:00S 32°25' E 152°40'510.3
2017-Oct-16 01:30S 32°30' E 152°38'510.4
2017-Oct-16 01:00S 32°34' E 152°34'510.6
2017-Oct-16 00:30S 32°37' E 152°29'510.9
2017-Oct-16 00:00S 32°41' E 152°25'510.8
2017-Oct-15 23:30S 32°45' E 152°20'611.1
2017-Oct-15 23:00S 32°49' E 152°15'611.3
2017-Oct-15 22:30S 32°51' E 152°09'611.7
2017-Oct-15 22:00S 32°53' E 152°02'611.9
2017-Oct-15 21:30S 32°55' E 151°56'510.5
2017-Oct-15 21:00S 32°57' E 151°50'3 5.6
2017-Oct-15 20:30S 32°55' E 151°47'1 2.8
2017-Oct-15 20:00S 32°54' E 151°46'0 0.0
2017-Oct-15 19:30S 32°54' E 151°46'0 0.0
2017-Oct-15 19:00S 32°54' E 151°46'0 0.1
2017-Oct-15 18:30S 32°54' E 151°46'0 0.1
2017-Oct-15 18:00S 32°54' E 151°46'0 0.1
2017-Oct-15 17:30S 32°54' E 151°46'0 0.1
2017-Oct-15 17:00S 32°54' E 151°46'0 0.1
2017-Oct-15 16:29S 32°54' E 151°46'0 0.1
2017-Oct-15 16:00S 32°54' E 151°46'0 0.1
2017-Oct-15 15:30S 32°54' E 151°46'0 0.0
2017-Oct-15 15:00S 32°54' E 151°46'0 0.0
2017-Oct-15 14:00S 32°54' E 151°46'0 0.0
2017-Oct-15 13:30S 32°54' E 151°46'0 0.0
2017-Oct-15 12:59S 32°54' E 151°46'0 0.0
2017-Oct-15 12:30S 32°54' E 151°46'0 0.1
2017-Oct-15 12:00S 32°54' E 151°46'0 0.0
2017-Oct-15 11:30S 32°54' E 151°46'0 0.0
2017-Oct-15 11:00S 32°54' E 151°46'0 0.1
2017-Oct-15 10:30S 32°54' E 151°46'0 0.0
2017-Oct-15 10:00S 32°54' E 151°46'0 0.0
2017-Oct-15 09:30S 32°54' E 151°46'0 0.0
2017-Oct-15 08:59S 32°54' E 151°46'0 0.0
2017-Oct-15 08:30S 32°54' E 151°46'0 0.0
2017-Oct-15 08:00S 32°54' E 151°46'0 0.0
2017-Oct-15 07:30S 32°54' E 151°46'0 0.0
2017-Oct-15 06:59S 32°54' E 151°46'0 0.0
2017-Oct-15 06:29S 32°54' E 151°46'0 0.0
2017-Oct-15 06:00S 32°54' E 151°46'0 0.0
2017-Oct-15 05:30S 32°54' E 151°46'0 0.1
2017-Oct-15 05:00S 32°54' E 151°46'0 0.0
2017-Oct-15 04:30S 32°54' E 151°46'0 0.1
2017-Oct-15 04:00S 32°54' E 151°46'0 0.0
2017-Oct-15 03:30S 32°54' E 151°46'0 0.0
2017-Oct-15 02:59S 32°54' E 151°46'0 0.1
2017-Oct-15 02:30S 32°54' E 151°46'0 0.1
2017-Oct-15 02:00S 32°54' E 151°46'0 0.0
2017-Oct-15 01:30S 32°54' E 151°46'0 0.0
2017-Oct-15 01:00S 32°54' E 151°46'0 0.1
2017-Oct-15 00:30S 32°54' E 151°46'0 0.1
2017-Oct-15 00:00S 32°54' E 151°46'0 0.0
2017-Oct-14 23:30S 32°54' E 151°46'0 0.1
2017-Oct-14 23:00S 32°54' E 151°46'0 0.1
2017-Oct-14 22:30S 32°54' E 151°46'0 0.1
2017-Oct-14 22:00S 32°54' E 151°46'0 0.1
2017-Oct-14 21:29S 32°54' E 151°46'0 0.1
2017-Oct-14 21:00S 32°54' E 151°46'0 0.0
2017-Oct-14 20:30S 32°54' E 151°46'0 0.1
2017-Oct-14 20:00S 32°54' E 151°46'0 0.0
2017-Oct-14 19:30S 32°54' E 151°46'0 0.0
2017-Oct-14 19:00S 32°54' E 151°46'0 0.1
2017-Oct-14 18:30S 32°54' E 151°46'0 0.1
2017-Oct-14 18:00S 32°54' E 151°46'0 0.0
2017-Oct-14 17:30S 32°54' E 151°46'0 0.1
2017-Oct-14 17:00S 32°54' E 151°46'0 0.0
2017-Oct-14 16:30S 32°54' E 151°46'0 0.1
2017-Oct-14 16:00S 32°54' E 151°46'0 0.0
2017-Oct-14 15:30S 32°54' E 151°46'0 0.0
2017-Oct-14 15:00S 32°54' E 151°46'0 0.1
2017-Oct-14 14:30S 32°54' E 151°46'0 0.5
2017-Oct-14 14:00S 32°54' E 151°46'2 3.7
2017-Oct-14 13:30S 32°55' E 151°48'5 9.9
2017-Oct-14 13:00S 32°57' E 151°53'4 7.2
2017-Oct-14 12:30S 32°59' E 151°57'510.1
2017-Oct-14 12:00S 32°55' E 152°02'713.4
2017-Oct-14 11:30S 32°52' E 152°09'714.0
2017-Oct-14 11:01S 32°49' E 152°16'713.9
2017-Oct-14 10:30S 32°43' E 152°22'713.9
2017-Oct-14 10:00S 32°39' E 152°27'713.1
2017-Oct-14 09:30S 32°34' E 152°33'713.6
2017-Oct-14 09:00S 32°29' E 152°39'24513.7
2017-Oct-13 15:07S 28°36' E 154°05'714.8
2017-Oct-13 14:38S 28°28' E 154°05'215.2
2017-Oct-13 14:29S 28°26' E 154°05'1515.2
2017-Oct-13 13:29S 28°11' E 154°05'1215.3
2017-Oct-13 12:44S 27°60' E 154°06'415.0
2017-Oct-13 12:27S 27°55' E 154°05'715.1
2017-Oct-13 12:00S 27°49' E 154°05'815.0
2017-Oct-13 11:29S 27°41' E 154°05'  
Track history (hours):
 
Tides and Currents Weather Stations Pressure Air Temp Water Temp Dewpoint Dewpoint Depression Visibility Wind Speed Wind Dir Waves Ship Positions

Pacific Infinity

Last reported at 2017-Oct-17 06:31 UTC. Time now 2017-Nov-23 01:53 UTC.
Position S 28°01' E 154°09'.
Warning: this ship's position is 36 days out of date.

Length 190 m; draft 11.8 m.

Type: Cargo ship. MMSI: 373201000.

Date/timePositionNaut miles runAvg speedWind from/ knotsBaromVisibWave heightAir tempDewpointWater temp
2017-Oct-17 06:31S 28°01' E 154°09'1 9.1
2017-Oct-17 06:23S 28°02' E 154°07'3 8.8
2017-Oct-17 06:00S 28°03' E 154°04'6 8.9
2017-Oct-17 05:19S 28°05' E 153°57'2 7.9
2017-Oct-17 05:00S 28°06' E 153°55'5 9.1
2017-Oct-17 04:30S 28°11' E 153°56'5 9.3
2017-Oct-17 04:00S 28°15' E 153°57'7 9.4
2017-Oct-17 03:16S 28°22' E 153°59'3 9.7
2017-Oct-17 02:59S 28°25' E 154°00'5 9.7
2017-Oct-17 02:30S 28°29' E 154°01'24610.1
2017-Oct-16 02:03S 32°25' E 152°41'110.7
2017-Oct-16 02:00S 32°25' E 152°40'510.3
2017-Oct-16 01:30S 32°30' E 152°38'510.4
2017-Oct-16 01:00S 32°34' E 152°34'510.6
2017-Oct-16 00:30S 32°37' E 152°29'510.9
2017-Oct-16 00:00S 32°41' E 152°25'510.8
2017-Oct-15 23:30S 32°45' E 152°20'611.1
2017-Oct-15 23:00S 32°49' E 152°15'611.3
2017-Oct-15 22:30S 32°51' E 152°09'611.7
2017-Oct-15 22:00S 32°53' E 152°02'611.9
2017-Oct-15 21:30S 32°55' E 151°56'510.5
2017-Oct-15 21:00S 32°57' E 151°50'3 5.6
2017-Oct-15 20:30S 32°55' E 151°47'1 2.8
2017-Oct-15 20:00S 32°54' E 151°46'0 0.0
2017-Oct-15 19:30S 32°54' E 151°46'0 0.0
2017-Oct-15 19:00S 32°54' E 151°46'0 0.1
2017-Oct-15 18:30S 32°54' E 151°46'0 0.1
2017-Oct-15 18:00S 32°54' E 151°46'0 0.1
2017-Oct-15 17:30S 32°54' E 151°46'0 0.1
2017-Oct-15 17:00S 32°54' E 151°46'0 0.1
2017-Oct-15 16:29S 32°54' E 151°46'0 0.1
2017-Oct-15 16:00S 32°54' E 151°46'0 0.1
2017-Oct-15 15:30S 32°54' E 151°46'0 0.0
2017-Oct-15 15:00S 32°54' E 151°46'0 0.0
2017-Oct-15 14:00S 32°54' E 151°46'0 0.0
2017-Oct-15 13:30S 32°54' E 151°46'0 0.0
2017-Oct-15 12:59S 32°54' E 151°46'0 0.0
2017-Oct-15 12:30S 32°54' E 151°46'0 0.1
2017-Oct-15 12:00S 32°54' E 151°46'0 0.0
2017-Oct-15 11:30S 32°54' E 151°46'0 0.0
2017-Oct-15 11:00S 32°54' E 151°46'0 0.1
2017-Oct-15 10:30S 32°54' E 151°46'0 0.0
2017-Oct-15 10:00S 32°54' E 151°46'0 0.0
2017-Oct-15 09:30S 32°54' E 151°46'0 0.0
2017-Oct-15 08:59S 32°54' E 151°46'0 0.0
2017-Oct-15 08:30S 32°54' E 151°46'0 0.0
2017-Oct-15 08:00S 32°54' E 151°46'0 0.0
2017-Oct-15 07:30S 32°54' E 151°46'0 0.0
2017-Oct-15 06:59S 32°54' E 151°46'0 0.0
2017-Oct-15 06:29S 32°54' E 151°46'0 0.0
2017-Oct-15 06:00S 32°54' E 151°46'0 0.0
2017-Oct-15 05:30S 32°54' E 151°46'0 0.1
2017-Oct-15 05:00S 32°54' E 151°46'0 0.0
2017-Oct-15 04:30S 32°54' E 151°46'0 0.1
2017-Oct-15 04:00S 32°54' E 151°46'0 0.0
2017-Oct-15 03:30S 32°54' E 151°46'0 0.0
2017-Oct-15 02:59S 32°54' E 151°46'0 0.1
2017-Oct-15 02:30S 32°54' E 151°46'0 0.1
2017-Oct-15 02:00S 32°54' E 151°46'0 0.0
2017-Oct-15 01:30S 32°54' E 151°46'0 0.0
2017-Oct-15 01:00S 32°54' E 151°46'0 0.1
2017-Oct-15 00:30S 32°54' E 151°46'0 0.1
2017-Oct-15 00:00S 32°54' E 151°46'0 0.0
2017-Oct-14 23:30S 32°54' E 151°46'0 0.1
2017-Oct-14 23:00S 32°54' E 151°46'0 0.1
2017-Oct-14 22:30S 32°54' E 151°46'0 0.1
2017-Oct-14 22:00S 32°54' E 151°46'0 0.1
2017-Oct-14 21:29S 32°54' E 151°46'0 0.1
2017-Oct-14 21:00S 32°54' E 151°46'0 0.0
2017-Oct-14 20:30S 32°54' E 151°46'0 0.1
2017-Oct-14 20:00S 32°54' E 151°46'0 0.0
2017-Oct-14 19:30S 32°54' E 151°46'0 0.0
2017-Oct-14 19:00S 32°54' E 151°46'0 0.1
2017-Oct-14 18:30S 32°54' E 151°46'0 0.1
2017-Oct-14 18:00S 32°54' E 151°46'0 0.0
2017-Oct-14 17:30S 32°54' E 151°46'0 0.1
2017-Oct-14 17:00S 32°54' E 151°46'0 0.0
2017-Oct-14 16:30S 32°54' E 151°46'0 0.1
2017-Oct-14 16:00S 32°54' E 151°46'0 0.0
2017-Oct-14 15:30S 32°54' E 151°46'0 0.0
2017-Oct-14 15:00S 32°54' E 151°46'0 0.1
2017-Oct-14 14:30S 32°54' E 151°46'0 0.5
2017-Oct-14 14:00S 32°54' E 151°46'2 3.7
2017-Oct-14 13:30S 32°55' E 151°48'5 9.9
2017-Oct-14 13:00S 32°57' E 151°53'4 7.2
2017-Oct-14 12:30S 32°59' E 151°57'510.1
2017-Oct-14 12:00S 32°55' E 152°02'713.4
2017-Oct-14 11:30S 32°52' E 152°09'714.0
2017-Oct-14 11:01S 32°49' E 152°16'713.9
2017-Oct-14 10:30S 32°43' E 152°22'713.9
2017-Oct-14 10:00S 32°39' E 152°27'713.1
2017-Oct-14 09:30S 32°34' E 152°33'713.6
2017-Oct-14 09:00S 32°29' E 152°39'24513.7
2017-Oct-13 15:07S 28°36' E 154°05'714.8
2017-Oct-13 14:38S 28°28' E 154°05'215.2
2017-Oct-13 14:29S 28°26' E 154°05'1515.2
2017-Oct-13 13:29S 28°11' E 154°05'1215.3
2017-Oct-13 12:44S 27°60' E 154°06'415.0
2017-Oct-13 12:27S 27°55' E 154°05'715.1
2017-Oct-13 12:00S 27°49' E 154°05'815.0
2017-Oct-13 11:29S 27°41' E 154°05'  

Dump ship's entire track history